Time;durP1;ratioP1;P1;durP2;ratioP2;P2;SDS_P1;SDS_P2;PMS_P1;PMS_P2;Temp;Humidity;BMP_temperature;BMP_pressure;BME280_temperature;BME280_humidity;BME280_pressure;Samples;Min_cycle;Max_cycle;Signal;HPM_P1;HPM_P2
2022/03/09 00:00:17;;;;;;;6.53;2.97;;;2.10;99.90;;;;;;6348569;22;20105;-88
2022/03/09 00:02:43;;;;;;;6.47;3.37;;;2.00;99.90;;;;;;6402987;22;20392;-88
2022/03/09 00:05:09;;;;;;;6.83;3.30;;;2.10;99.90;;;;;;6374587;22;20014;-88
2022/03/09 00:07:35;;;;;;;6.03;3.30;;;2.10;99.90;;;;;;6348117;22;20054;-92
2022/03/09 00:10:01;;;;;;;6.00;3.13;;;2.00;99.90;;;;;;6374534;22;20040;-90
2022/03/09 00:12:26;;;;;;;5.07;3.10;;;1.90;99.90;;;;;;6348350;22;20025;-87
2022/03/09 00:14:52;;;;;;;8.03;3.47;;;1.90;99.90;;;;;;6348136;22;20021;-91
2022/03/09 00:17:18;;;;;;;5.78;3.25;;;1.80;99.90;;;;;;6374640;22;20021;-91
2022/03/09 00:19:43;;;;;;;6.70;3.20;;;1.70;99.90;;;;;;6374328;22;20036;-87
2022/03/09 00:22:09;;;;;;;5.73;3.10;;;1.70;99.90;;;;;;6374441;22;20018;-90
2022/03/09 00:27:10;;;;;;;7.53;2.90;;;1.70;99.90;;;;;;6392465;22;20022;-86
2022/03/09 00:29:36;;;;;;;6.22;3.20;;;1.70;99.90;;;;;;6348188;22;20022;-84
2022/03/09 00:32:03;;;;;;;5.73;3.03;;;1.70;99.90;;;;;;6374387;22;20018;-84
2022/03/09 00:34:28;;;;;;;7.00;3.00;;;1.60;99.90;;;;;;6374019;22;20640;-84
2022/03/09 00:36:54;;;;;;;6.10;3.15;;;1.60;99.90;;;;;;6374020;22;20014;-85
2022/03/09 00:39:20;;;;;;;6.07;3.30;;;1.60;99.90;;;;;;6374087;22;20021;-86
2022/03/09 00:41:46;;;;;;;5.88;3.00;;;1.60;99.90;;;;;;6374061;22;20088;-83
2022/03/09 00:44:11;;;;;;;6.30;3.10;;;1.60;99.90;;;;;;6374113;22;20447;-84
2022/03/09 00:46:37;;;;;;;7.77;3.00;;;1.60;99.90;;;;;;6347873;22;20022;-83
2022/03/09 00:49:03;;;;;;;8.03;3.27;;;1.70;99.90;;;;;;6373747;22;20097;-83
2022/03/09 00:51:29;;;;;;;7.53;3.50;;;1.70;99.90;;;;;;6373940;22;20412;-85
2022/03/09 00:53:54;;;;;;;6.25;3.28;;;1.70;99.90;;;;;;6374033;22;20014;-84
2022/03/09 00:56:20;;;;;;;6.88;3.20;;;1.60;99.90;;;;;;6374273;22;20089;-84
2022/03/09 00:58:47;;;;;;;6.40;2.97;;;1.70;99.90;;;;;;6374316;22;20022;-84
2022/03/09 01:01:13;;;;;;;;;;;1.70;99.90;;;;;;6374422;22;20014;-84
2022/03/09 01:03:39;;;;;;;7.22;3.28;;;1.60;99.90;;;;;;6373955;22;19924;-89
2022/03/09 01:06:04;;;;;;;6.73;3.30;;;1.60;99.90;;;;;;6373972;22;20022;-84
2022/03/09 01:08:31;;;;;;;6.28;3.35;;;1.60;99.90;;;;;;6373676;22;20131;-84
2022/03/09 01:10:56;;;;;;;6.38;3.55;;;1.60;99.90;;;;;;6373991;22;20454;-84
2022/03/09 01:13:22;;;;;;;7.28;3.65;;;1.60;99.90;;;;;;6347497;22;20024;-84
2022/03/09 01:15:48;;;;;;;5.23;3.20;;;1.60;99.90;;;;;;6402087;22;20018;-84
2022/03/09 01:18:14;;;;;;;8.43;3.55;;;1.60;99.90;;;;;;6373888;22;20060;-87
2022/03/09 01:20:43;;;;;;;5.78;3.70;;;1.60;99.90;;;;;;6373669;22;20075;-85
2022/03/09 01:23:09;;;;;;;7.60;3.88;;;1.60;99.90;;;;;;6374222;22;20056;-84
2022/03/09 01:25:34;;;;;;;9.60;4.05;;;1.50;99.90;;;;;;6373811;22;20022;-85
2022/03/09 01:28:00;;;;;;;6.95;3.65;;;1.50;99.90;;;;;;6347213;22;20032;-86
2022/03/09 01:30:26;;;;;;;6.57;3.38;;;1.40;99.90;;;;;;6373607;22;20018;-85
2022/03/09 01:32:52;;;;;;;8.03;4.00;;;1.40;99.90;;;;;;6373840;22;20018;-84
2022/03/09 01:35:18;;;;;;;7.60;3.30;;;1.40;99.90;;;;;;6374016;22;20022;-88
2022/03/09 01:37:45;;;;;;;7.40;3.67;;;1.40;99.90;;;;;;6373922;22;20053;-85
2022/03/09 01:40:12;;;;;;;7.95;3.83;;;1.30;99.90;;;;;;6347543;22;20260;-86
2022/03/09 01:42:38;;;;;;;7.15;3.80;;;1.30;99.90;;;;;;6373620;22;20022;-84
2022/03/09 01:45:06;;;;;;;8.77;3.72;;;1.30;99.90;;;;;;6373652;22;20351;-86
2022/03/09 01:47:32;;;;;;;8.43;3.97;;;1.30;99.90;;;;;;6373702;22;20353;-85
2022/03/09 01:49:57;;;;;;;9.40;3.78;;;1.20;99.90;;;;;;6373815;22;20014;-87
2022/03/09 01:52:24;;;;;;;10.15;4.35;;;1.20;99.90;;;;;;6403373;22;20018;-85
2022/03/09 01:54:52;;;;;;;7.72;4.40;;;1.20;99.90;;;;;;6349642;22;20050;-85
2022/03/09 01:57:19;;;;;;;8.68;3.83;;;1.20;99.90;;;;;;6403750;22;20020;-86
2022/03/09 01:59:49;;;;;;;6.93;4.05;;;1.20;99.90;;;;;;6375840;22;20022;-93
2022/03/09 02:04:50;;;;;;;7.35;4.00;;;1.10;99.90;;;;;;6402269;22;20070;-86
2022/03/09 02:07:17;;;;;;;7.87;3.80;;;1.00;99.90;;;;;;6375475;22;20082;-89
2022/03/09 02:09:44;;;;;;;7.90;3.95;;;1.00;99.90;;;;;;6349482;22;20014;-88
2022/03/09 02:12:12;;;;;;;6.60;4.03;;;1.00;99.90;;;;;;6375617;22;20017;-86
2022/03/09 02:14:48;;;;;;;6.85;4.18;;;1.00;99.90;;;;;;6348969;22;20074;-82
2022/03/09 02:17:30;;;;;;;6.97;3.70;;;0.90;99.90;;;;;;6376324;22;20072;-85
2022/03/09 02:19:57;;;;;;;8.82;3.90;;;0.90;99.90;;;;;;6349090;22;20017;-82
2022/03/09 02:22:33;;;;;;;8.48;4.45;;;0.90;99.90;;;;;;6348898;22;20018;-84
2022/03/09 02:25:00;;;;;;;8.98;4.07;;;0.90;99.90;;;;;;6403280;22;20074;-83
2022/03/09 02:27:26;;;;;;;9.13;4.20;;;0.90;99.90;;;;;;6375111;22;20022;-83
2022/03/09 02:29:53;;;;;;;7.15;4.13;;;0.80;99.90;;;;;;6375110;22;20025;-87
2022/03/09 02:32:19;;;;;;;;;;;0.70;99.90;;;;;;6375754;22;20028;-82
2022/03/09 02:34:45;;;;;;;7.30;4.05;;;0.60;99.90;;;;;;6375106;22;20238;-83
2022/03/09 02:37:11;;;;;;;7.85;3.97;;;0.60;99.90;;;;;;6403030;22;20018;-86
2022/03/09 02:39:37;;;;;;;10.20;4.55;;;0.60;99.90;;;;;;6375198;22;20071;-83
2022/03/09 02:42:04;;;;;;;7.27;4.10;;;0.50;99.90;;;;;;6375183;22;20104;-82
2022/03/09 02:44:30;;;;;;;9.43;4.57;;;0.50;99.90;;;;;;6403056;22;20014;-83
2022/03/09 02:46:56;;;;;;;9.07;4.45;;;0.50;99.90;;;;;;6374826;22;20100;-86
2022/03/09 02:49:22;;;;;;;8.00;4.28;;;0.40;99.90;;;;;;6374865;22;20028;-85
2022/03/09 02:51:48;;;;;;;6.65;4.20;;;0.50;99.90;;;;;;6374854;22;20014;-85
2022/03/09 02:54:14;;;;;;;8.85;4.50;;;0.50;99.90;;;;;;6374762;22;20056;-84
2022/03/09 02:56:40;;;;;;;7.75;4.25;;;0.50;99.90;;;;;;6374958;22;20072;-84
2022/03/09 02:59:06;;;;;;;8.07;4.73;;;0.50;99.90;;;;;;6403483;22;20045;-83
2022/03/09 03:01:33;;;;;;;8.47;4.40;;;0.50;99.90;;;;;;6374923;22;20025;-84
2022/03/09 03:03:58;;;;;;;8.02;4.47;;;0.50;99.90;;;;;;6402647;22;20059;-83
2022/03/09 03:06:24;;;;;;;7.85;4.90;;;0.50;99.90;;;;;;6402847;22;20018;-85
2022/03/09 03:08:51;;;;;;;8.07;4.32;;;0.50;99.90;;;;;;6348810;22;20029;-83
2022/03/09 03:11:17;;;;;;;12.13;4.70;;;0.60;99.90;;;;;;6374878;22;20017;-83
2022/03/09 03:13:42;;;;;;;9.65;5.15;;;0.70;99.90;;;;;;6374475;22;20026;-84
2022/03/09 03:16:09;;;;;;;8.52;5.13;;;0.70;99.90;;;;;;6374880;22;20022;-84
2022/03/09 03:18:35;;;;;;;8.45;4.88;;;0.80;99.90;;;;;;6402832;22;20018;-87
2022/03/09 03:21:01;;;;;;;7.63;4.38;;;0.80;99.90;;;;;;6374685;22;20041;-83
2022/03/09 03:23:29;;;;;;;9.82;4.55;;;0.90;99.90;;;;;;6348109;22;20025;-82
2022/03/09 03:25:56;;;;;;;8.93;4.50;;;0.80;99.90;;;;;;6402714;22;20133;-82
2022/03/09 03:28:22;;;;;;;10.35;4.93;;;0.80;99.90;;;;;;6402534;22;20060;-83
2022/03/09 03:30:48;;;;;;;9.52;4.80;;;0.80;99.90;;;;;;6402609;22;20021;-84
2022/03/09 03:33:15;;;;;;;10.38;4.80;;;0.80;99.90;;;;;;6374654;22;20028;-82
2022/03/09 03:35:42;;;;;;;9.68;5.03;;;0.70;99.90;;;;;;6374451;22;20022;-83
2022/03/09 03:38:09;;;;;;;9.02;5.72;;;0.70;99.90;;;;;;6374653;22;20018;-84
2022/03/09 03:40:35;;;;;;;9.93;5.65;;;0.70;99.90;;;;;;6347895;22;20447;-82
2022/03/09 03:43:00;;;;;;;9.25;4.80;;;0.60;99.90;;;;;;6374451;22;20048;-84
2022/03/09 03:45:26;;;;;;;12.77;5.70;;;0.70;99.90;;;;;;6374441;22;20531;-83
2022/03/09 03:47:52;;;;;;;9.15;5.38;;;0.50;99.90;;;;;;6374203;22;20332;-86
2022/03/09 03:50:18;;;;;;;10.45;5.85;;;0.50;99.90;;;;;;6374136;22;20018;-82
2022/03/09 03:52:44;;;;;;;10.87;5.67;;;0.40;99.90;;;;;;6348031;22;20078;-84
2022/03/09 03:55:10;;;;;;;9.27;5.22;;;0.50;99.90;;;;;;6348335;22;20096;-87
2022/03/09 03:57:36;;;;;;;8.82;5.30;;;0.40;99.90;;;;;;6347960;22;20026;-86
2022/03/09 04:00:04;;;;;;;9.02;4.93;;;0.40;99.90;;;;;;6402326;22;20014;-84
2022/03/09 04:02:31;;;;;;;9.82;4.97;;;0.30;99.90;;;;;;6373885;22;20082;-83
2022/03/09 04:04:56;;;;;;;10.73;5.72;;;0.30;99.90;;;;;;6374141;22;20086;-86
2022/03/09 04:07:22;;;;;;;9.20;4.88;;;0.30;99.90;;;;;;6374008;22;20454;-86
2022/03/09 04:09:48;;;;;;;10.23;5.55;;;0.30;99.90;;;;;;6374158;22;20339;-83
2022/03/09 04:12:15;;;;;;;9.30;5.43;;;0.20;99.90;;;;;;6347905;22;20057;-83
2022/03/09 04:14:41;;;;;;;11.40;5.72;;;0.20;99.90;;;;;;6373814;22;20017;-82
2022/03/09 04:17:06;;;;;;;9.10;5.30;;;0.20;99.90;;;;;;6374268;22;20057;-84
2022/03/09 04:19:32;;;;;;;10.80;5.28;;;0.20;99.90;;;;;;6374081;22;20026;-83
2022/03/09 04:21:58;;;;;;;8.90;5.38;;;0.10;99.90;;;;;;6373975;22;20018;-87
2022/03/09 04:24:24;;;;;;;13.70;5.45;;;0.10;99.90;;;;;;6374033;22;20351;-83
2022/03/09 04:26:50;;;;;;;11.20;5.90;;;0.10;99.90;;;;;;6373789;22;20094;-82
2022/03/09 04:29:16;;;;;;;9.13;5.45;;;0.10;99.90;;;;;;6374057;22;20018;-83
2022/03/09 04:31:41;;;;;;;10.07;5.60;;;0.00;99.90;;;;;;6402127;22;20103;-84
2022/03/09 04:34:07;;;;;;;10.15;5.10;;;0.10;99.90;;;;;;6347787;22;20050;-85
2022/03/09 04:36:33;;;;;;;9.23;5.32;;;0.00;99.90;;;;;;6373798;22;20022;-84
2022/03/09 04:38:59;;;;;;;10.52;5.57;;;0.00;99.90;;;;;;6373758;22;20096;-85
2022/03/09 04:41:25;;;;;;;11.10;5.78;;;0.00;99.90;;;;;;6373787;22;20096;-83
2022/03/09 04:43:51;;;;;;;9.20;5.85;;;0.00;99.90;;;;;;6373807;22;20502;-83
2022/03/09 04:46:17;;;;;;;10.23;5.68;;;0.10;99.90;;;;;;6373953;22;20053;-83
2022/03/09 04:48:44;;;;;;;8.43;5.25;;;0.10;99.90;;;;;;6373844;22;20053;-85
2022/03/09 04:51:10;;;;;;;9.57;5.75;;;0.10;99.90;;;;;;6348154;22;20024;-82
2022/03/09 04:53:36;;;;;;;11.13;5.57;;;0.10;99.90;;;;;;6373969;22;20439;-84
2022/03/09 04:56:03;;;;;;;11.07;6.03;;;0.20;99.90;;;;;;6401910;22;20097;-83
2022/03/09 04:58:29;;;;;;;11.00;5.77;;;0.20;99.90;;;;;;6347770;22;20053;-86
2022/03/09 05:00:55;;;;;;;11.23;6.20;;;0.20;99.90;;;;;;6374136;22;20248;-83
2022/03/09 05:03:21;;;;;;;11.50;6.18;;;0.10;99.90;;;;;;6402063;22;20024;-83
2022/03/09 05:05:47;;;;;;;10.60;6.38;;;0.10;99.90;;;;;;6373459;22;20455;-83
2022/03/09 05:08:12;;;;;;;13.23;6.32;;;0.10;99.90;;;;;;6373697;22;20034;-84
2022/03/09 05:10:39;;;;;;;9.82;6.00;;;0.10;99.90;;;;;;6347580;22;20021;-83
2022/03/09 05:13:05;;;;;;;12.00;7.20;;;0.10;99.90;;;;;;6373874;22;20514;-85
2022/03/09 05:15:31;;;;;;;10.65;6.82;;;0.00;99.90;;;;;;6373911;22;20018;-84
2022/03/09 05:17:57;;;;;;;10.65;6.03;;;0.00;99.90;;;;;;6373668;22;20151;-85
2022/03/09 05:20:23;;;;;;;11.23;5.90;;;0.00;99.90;;;;;;6347406;22;20022;-85
2022/03/09 05:22:50;;;;;;;12.63;6.70;;;-0.10;99.90;;;;;;6401727;22;20024;-84
2022/03/09 05:25:15;;;;;;;;;;;-0.20;99.90;;;;;;6374452;22;20022;-81
2022/03/09 05:27:41;;;;;;;10.75;5.90;;;-0.20;99.90;;;;;;6375751;22;20000;-83
2022/03/09 05:30:11;;;;;;;12.30;5.88;;;-0.20;99.90;;;;;;6375702;22;20096;-83
2022/03/09 05:32:41;;;;;;;12.30;6.28;;;-0.20;99.90;;;;;;6375870;22;20022;-82
2022/03/09 05:35:08;;;;;;;13.90;5.97;;;-0.20;99.90;;;;;;6349028;22;20092;-82
2022/03/09 05:37:42;;;;;;;11.13;6.13;;;-0.20;99.90;;;;;;6375481;22;20481;-84
2022/03/09 05:40:09;;;;;;;11.30;6.38;;;-0.20;99.90;;;;;;6349376;22;20020;-86
2022/03/09 05:42:35;;;;;;;10.93;5.78;;;-0.20;99.90;;;;;;6375515;22;20028;-85
2022/03/09 05:45:02;;;;;;;13.57;6.78;;;-0.20;99.90;;;;;;6349297;22;20013;-83
2022/03/09 05:47:27;;;;;;;10.43;6.32;;;-0.20;99.90;;;;;;6375669;22;20469;-86
2022/03/09 05:49:53;;;;;;;10.77;6.03;;;-0.20;99.90;;;;;;6376095;22;20017;-82
2022/03/09 05:52:19;;;;;;;11.43;6.25;;;-0.10;99.90;;;;;;6375673;22;20384;-82
2022/03/09 05:54:45;;;;;;;10.77;6.60;;;-0.10;99.90;;;;;;6375517;22;20075;-82
2022/03/09 05:57:13;;;;;;;12.55;6.88;;;-0.10;99.90;;;;;;6375573;22;20012;-84
2022/03/09 05:59:38;;;;;;;10.75;6.90;;;0.00;99.90;;;;;;6375391;22;20089;-85
2022/03/09 06:02:04;;;;;;;13.45;6.18;;;-0.10;99.90;;;;;;6375604;22;20089;-87
2022/03/09 06:04:30;;;;;;;12.10;6.32;;;0.00;99.90;;;;;;6370026;22;20018;-85
2022/03/09 06:06:57;;;;;;;10.18;6.32;;;-0.10;99.90;;;;;;6370282;22;20018;-85
2022/03/09 06:09:28;;;;;;;10.45;6.93;;;-0.20;99.90;;;;;;6370125;22;20026;-87
2022/03/09 06:11:54;;;;;;;11.65;6.70;;;-0.10;99.90;;;;;;6343521;22;20018;-89
2022/03/09 06:14:20;;;;;;;11.73;6.90;;;-0.10;99.90;;;;;;6369987;22;20014;-88
2022/03/09 06:16:47;;;;;;;12.32;6.80;;;-0.10;99.90;;;;;;6343639;22;20021;-87
2022/03/09 06:19:16;;;;;;;11.57;6.75;;;-0.10;99.90;;;;;;6343420;22;20026;-86
2022/03/09 06:21:43;;;;;;;11.05;6.35;;;-0.10;99.90;;;;;;6369654;22;20015;-83
2022/03/09 06:24:32;;;;;;;11.50;6.63;;;-0.10;99.90;;;;;;6370115;22;20366;-84
2022/03/09 06:27:10;;;;;;;10.13;6.32;;;-0.10;99.90;;;;;;6343787;22;20101;-86
2022/03/09 06:29:36;;;;;;;11.65;6.65;;;-0.10;99.90;;;;;;6369500;22;20451;-85
2022/03/09 06:32:02;;;;;;;12.20;7.00;;;-0.10;99.90;;;;;;6343205;22;20077;-84
2022/03/09 06:34:28;;;;;;;11.98;6.70;;;-0.10;99.90;;;;;;6342429;22;20400;-82
2022/03/09 06:37:17;;;;;;;10.83;6.53;;;-0.10;99.90;;;;;;6369241;22;20106;-81
2022/03/09 06:43:01;;;;;;;14.07;6.80;;;-0.10;99.90;;;;;;6369806;22;20093;-82
2022/03/09 06:45:27;;;;;;;14.57;6.82;;;-0.10;99.90;;;;;;6343265;22;20021;-81
2022/03/09 06:47:53;;;;;;;10.43;6.22;;;-0.10;99.90;;;;;;6318182;22;20079;-82
2022/03/09 06:50:19;;;;;;;10.80;6.55;;;-0.10;99.90;;;;;;6371297;22;20440;-85
2022/03/09 06:52:45;;;;;;;12.60;6.90;;;-0.10;99.90;;;;;;6342710;22;20018;-84
2022/03/09 06:55:12;;;;;;;11.30;6.57;;;-0.10;99.90;;;;;;6369369;22;20155;-86
2022/03/09 06:57:38;;;;;;;12.57;6.95;;;-0.10;99.90;;;;;;6369892;22;20014;-84
2022/03/09 07:00:11;;;;;;;11.50;7.18;;;0.00;99.90;;;;;;6369532;22;20026;-83
2022/03/09 07:02:38;;;;;;;12.48;7.10;;;0.20;99.90;;;;;;6370133;22;20015;-84
2022/03/09 07:05:04;;;;;;;11.82;7.05;;;0.30;99.90;;;;;;6369759;22;20011;-88
2022/03/09 07:07:30;;;;;;;11.32;7.63;;;0.60;99.90;;;;;;6369938;22;20010;-84
2022/03/09 07:09:56;;;;;;;12.95;7.57;;;1.00;99.90;;;;;;6370949;22;20078;-87
2022/03/09 07:12:22;;;;;;;11.60;7.18;;;1.10;99.90;;;;;;6369728;22;20101;-87
2022/03/09 07:14:48;;;;;;;12.68;7.50;;;1.20;99.90;;;;;;6370915;22;20018;-81
2022/03/09 07:17:13;;;;;;;11.90;7.22;;;1.30;99.90;;;;;;6369418;22;20018;-86
2022/03/09 07:19:39;;;;;;;11.05;7.28;;;1.40;99.90;;;;;;6369753;22;20029;-82
2022/03/09 07:22:06;;;;;;;11.80;7.30;;;1.60;99.90;;;;;;6342967;22;20106;-83
2022/03/09 07:24:32;;;;;;;;;;;1.90;99.90;;;;;;6370081;22;20075;-87
2022/03/09 07:26:58;;;;;;;16.23;7.47;;;2.00;99.90;;;;;;6369248;22;20274;-83
2022/03/09 07:29:24;;;;;;;12.27;7.38;;;2.00;99.90;;;;;;6370967;22;20015;-82
2022/03/09 07:31:50;;;;;;;11.18;7.20;;;2.00;99.90;;;;;;6370833;22;20017;-87
2022/03/09 07:34:16;;;;;;;12.77;7.60;;;2.00;99.90;;;;;;6369125;22;20018;-82
2022/03/09 07:36:42;;;;;;;15.15;7.82;;;1.90;99.90;;;;;;6369494;22;20023;-82
2022/03/09 07:39:08;;;;;;;14.05;7.40;;;1.90;99.90;;;;;;6342848;22;20025;-82
2022/03/09 07:41:47;;;;;;;11.48;7.30;;;1.90;99.90;;;;;;6371571;22;20502;-82
2022/03/09 07:44:12;;;;;;;;;;;1.90;99.90;;;;;;6343249;22;20021;-83
2022/03/09 07:46:38;;;;;;;12.15;6.63;;;1.90;99.90;;;;;;6342420;22;20408;-83
2022/03/09 07:49:04;;;;;;;13.23;7.97;;;1.90;99.90;;;;;;6342485;22;20022;-83
2022/03/09 07:51:39;;;;;;;12.50;7.80;;;1.90;99.90;;;;;;6369325;22;20015;-83
2022/03/09 07:54:29;;;;;;;13.10;7.72;;;2.00;99.90;;;;;;6343562;22;20018;-84
2022/03/09 07:57:15;;;;;;;12.55;7.47;;;2.00;99.90;;;;;;6371679;22;20482;-87
2022/03/09 07:59:41;;;;;;;12.80;7.93;;;2.10;99.90;;;;;;6345750;22;20021;-90
2022/03/09 08:02:07;;;;;;;12.35;7.47;;;2.10;99.90;;;;;;6344095;22;20324;-92
2022/03/09 08:04:35;;;;;;;15.30;8.02;;;2.20;99.90;;;;;;6343840;22;20097;-90
2022/03/09 08:07:00;;;;;;;;;;;2.30;99.90;;;;;;6371959;22;20519;-85
2022/03/09 08:09:26;;;;;;;13.30;8.13;;;2.40;99.90;;;;;;6370135;22;19914;-87
2022/03/09 08:17:08;;;;;;;13.52;7.90;;;2.60;99.90;;;;;;6376158;22;20018;-96
2022/03/09 08:19:34;;;;;;;12.82;7.40;;;2.80;99.90;;;;;;6349920;22;20022;-92
2022/03/09 08:22:00;;;;;;;10.27;6.17;;;2.90;99.90;;;;;;6332328;22;20025;-96
2022/03/09 08:24:27;;;;;;;12.18;7.50;;;3.10;99.90;;;;;;6324591;22;20031;-96
2022/03/09 08:27:42;;;;;;;12.52;7.20;;;3.20;99.90;;;;;;6331782;22;20014;-96
2022/03/09 08:32:44;;;;;;;11.25;7.20;;;3.50;99.90;;;;;;6384262;22;20034;-85
2022/03/09 08:35:10;;;;;;;15.40;7.22;;;3.60;99.90;;;;;;6337485;22;20020;-90
2022/03/09 08:37:35;;;;;;;11.80;7.15;;;3.70;99.90;;;;;;6347973;22;20045;-85
2022/03/09 08:40:02;;;;;;;10.65;6.70;;;3.70;99.90;;;;;;6374252;22;20021;-85
2022/03/09 08:42:47;;;;;;;11.88;7.20;;;3.80;99.90;;;;;;6385186;22;20010;-86
2022/03/09 08:45:13;;;;;;;12.95;7.15;;;3.90;99.90;;;;;;6362076;22;20019;-86
2022/03/09 08:47:39;;;;;;;11.07;6.70;;;4.00;99.90;;;;;;6389794;22;20021;-88
2022/03/09 08:52:41;;;;;;;13.25;7.10;;;4.10;99.90;;;;;;6398937;22;20022;-85
2022/03/09 08:55:09;;;;;;;13.23;7.38;;;4.20;99.90;;;;;;6354649;22;20024;-94
2022/03/09 08:57:57;;;;;;;11.00;6.97;;;4.30;99.90;;;;;;6361654;22;20010;-87
2022/03/09 09:00:24;;;;;;;11.75;7.65;;;4.40;99.90;;;;;;6375675;22;20014;-92
2022/03/09 09:02:50;;;;;;;13.10;7.30;;;4.50;99.90;;;;;;6376069;22;20017;-90
2022/03/09 09:05:40;;;;;;;14.65;7.30;;;4.60;99.90;;;;;;6376066;22;20022;-92
2022/03/09 09:08:07;;;;;;;11.93;6.85;;;4.70;99.90;;;;;;6348334;22;20021;-89
2022/03/09 09:10:34;;;;;;;;;;;4.70;99.90;;;;;;6375823;22;20434;-94
2022/03/09 09:12:59;;;;;;;12.68;7.35;;;4.80;99.90;;;;;;6383293;22;19956;-90
2022/03/09 09:15:26;;;;;;;11.38;6.78;;;5.00;99.90;;;;;;6355112;22;20026;-90
2022/03/09 09:18:00;;;;;;;10.48;6.93;;;5.00;99.90;;;;;;6376590;22;20020;-93
2022/03/09 09:20:57;;;;;;;11.68;7.00;;;5.10;99.90;;;;;;6377484;22;20090;-93
2022/03/09 09:27:08;;;;;;;11.23;6.57;;;5.40;99.90;;;;;;6310835;22;20023;-88
2022/03/09 09:29:34;;;;;;;12.00;6.40;;;5.50;99.90;;;;;;6338568;22;20028;-87
2022/03/09 09:32:01;;;;;;;11.50;6.20;;;5.60;99.50;;;;;;6350797;22;20026;-90
2022/03/09 09:34:27;;;;;;;12.15;6.63;;;5.70;99.30;;;;;;6377194;22;20442;-91
2022/03/09 09:37:15;;;;;;;11.63;7.18;;;5.80;98.60;;;;;;6352158;22;20014;-91
2022/03/09 09:39:41;;;;;;;11.88;6.72;;;5.90;97.90;;;;;;6351589;22;20049;-88
2022/03/09 09:42:08;;;;;;;12.63;6.93;;;6.00;97.20;;;;;;6350292;22;20025;-86
2022/03/09 09:44:34;;;;;;;11.65;6.38;;;6.10;96.60;;;;;;6351460;22;20465;-86
2022/03/09 09:47:00;;;;;;;12.60;6.95;;;6.20;95.80;;;;;;6376698;22;20029;-87
2022/03/09 09:49:26;;;;;;;10.97;6.70;;;6.30;95.50;;;;;;6350546;22;20014;-87
2022/03/09 09:51:53;;;;;;;11.33;7.03;;;6.40;95.30;;;;;;6349207;22;20021;-86
2022/03/09 09:54:22;;;;;;;9.60;6.22;;;6.50;94.80;;;;;;6349479;22;20057;-88
2022/03/09 09:56:48;;;;;;;10.90;6.35;;;6.60;94.20;;;;;;6349575;22;20017;-89
2022/03/09 09:59:14;;;;;;;13.63;7.10;;;6.70;93.80;;;;;;6404184;22;20458;-87
2022/03/09 10:01:40;;;;;;;11.30;6.70;;;6.80;93.70;;;;;;6375974;22;20016;-87
2022/03/09 10:04:08;;;;;;;11.93;6.82;;;6.90;92.80;;;;;;6375768;22;20022;-88
2022/03/09 10:06:34;;;;;;;9.93;6.53;;;6.90;92.00;;;;;;6375603;22;20025;-89
2022/03/09 10:09:14;;;;;;;10.63;6.27;;;7.10;91.90;;;;;;6376769;22;20447;-86
2022/03/09 10:11:51;;;;;;;11.68;7.10;;;7.20;91.70;;;;;;6348645;22;20609;-88
2022/03/09 10:14:37;;;;;;;11.95;6.65;;;7.30;91.20;;;;;;6349316;22;20022;-88
2022/03/09 10:17:06;;;;;;;13.32;6.80;;;7.40;91.50;;;;;;6349173;22;20017;-89
2022/03/09 10:19:34;;;;;;;11.23;7.07;;;7.60;90.80;;;;;;6349556;22;20029;-90
2022/03/09 10:22:21;;;;;;;11.10;6.82;;;7.70;89.00;;;;;;6403966;22;20078;-90
2022/03/09 10:24:47;;;;;;;11.45;6.50;;;7.80;87.30;;;;;;6349318;22;20040;-90
2022/03/09 10:27:30;;;;;;;10.53;6.53;;;7.90;86.30;;;;;;6349540;22;20343;-91
2022/03/09 10:29:56;;;;;;;9.88;6.75;;;8.00;84.10;;;;;;6375657;22;20067;-89
2022/03/09 10:32:40;;;;;;;10.33;6.23;;;8.10;82.90;;;;;;6349301;22;20026;-91
2022/03/09 10:35:06;;;;;;;11.45;6.45;;;8.10;81.70;;;;;;6349255;22;20046;-91
2022/03/09 10:37:38;;;;;;;11.30;7.20;;;8.20;81.50;;;;;;6403698;22;20075;-87
2022/03/09 10:40:18;;;;;;;10.80;6.85;;;8.40;80.90;;;;;;6349281;22;20045;-92
2022/03/09 10:42:45;;;;;;;10.80;7.07;;;8.40;80.80;;;;;;6375555;22;20026;-87
2022/03/09 10:45:13;;;;;;;11.20;6.80;;;8.50;80.90;;;;;;6375889;22;20010;-92
2022/03/09 10:51:37;;;;;;;11.13;6.60;;;8.70;80.60;;;;;;6368701;22;20356;-87
2022/03/09 10:54:19;;;;;;;11.57;6.85;;;8.80;79.70;;;;;;6343452;22;20018;-87
2022/03/09 10:56:45;;;;;;;11.93;6.93;;;8.90;79.20;;;;;;6320469;22;20023;-88
2022/03/09 10:59:20;;;;;;;10.05;6.60;;;9.00;78.40;;;;;;6318566;22;20041;-88
2022/03/09 11:02:39;;;;;;;12.30;7.13;;;9.10;77.70;;;;;;6322230;22;20082;-93
2022/03/09 11:05:59;;;;;;;10.53;6.40;;;9.20;76.60;;;;;;6320287;22;20482;-89
2022/03/09 11:08:29;;;;;;;9.80;6.60;;;9.30;76.20;;;;;;6199829;23;20362;-88
2022/03/09 11:10:58;;;;;;;11.82;6.72;;;9.40;74.90;;;;;;6303912;22;20523;-89
2022/03/09 11:13:25;;;;;;;11.45;7.53;;;9.50;74.30;;;;;;6317938;22;20056;-92
2022/03/09 11:16:19;;;;;;;10.75;7.03;;;9.50;74.00;;;;;;6351081;22;20018;-88
2022/03/09 11:18:45;;;;;;;11.48;6.80;;;9.70;74.10;;;;;;6326191;22;20022;-92
2022/03/09 11:21:14;;;;;;;10.68;7.10;;;9.70;73.80;;;;;;6327027;22;20339;-92
2022/03/09 11:23:42;;;;;;;12.07;7.63;;;9.80;73.90;;;;;;6298781;22;20425;-94
2022/03/09 11:26:21;;;;;;;12.15;7.35;;;9.80;73.70;;;;;;6325096;22;20011;-90
2022/03/09 11:28:47;;;;;;;11.63;7.50;;;9.90;73.30;;;;;;6328779;22;20026;-91
2022/03/09 11:31:20;;;;;;;11.10;7.20;;;10.00;72.90;;;;;;6325118;22;20095;-89
2022/03/09 11:33:49;;;;;;;11.85;6.68;;;10.00;72.30;;;;;;6326200;22;20022;-91
2022/03/09 11:36:59;;;;;;;9.85;6.90;;;10.10;71.70;;;;;;6323558;22;20014;-88
2022/03/09 11:42:33;;;;;;;10.10;6.55;;;10.20;70.80;;;;;;6374046;22;19921;-89
2022/03/09 11:45:29;;;;;;;13.00;7.20;;;10.20;69.50;;;;;;6360369;22;20049;-88
2022/03/09 11:56:17;;;;;;;13.23;7.40;;;10.40;67.70;;;;;;6385775;22;20022;-87
2022/03/09 11:59:19;;;;;;;10.35;7.32;;;10.50;66.90;;;;;;6329087;22;20105;-89
2022/03/09 12:02:15;;;;;;;11.30;7.28;;;10.50;65.70;;;;;;6354554;22;20025;-88
2022/03/09 12:04:48;;;;;;;11.30;7.45;;;10.50;67.20;;;;;;6259630;23;20031;-88
2022/03/09 12:07:38;;;;;;;11.10;6.80;;;10.60;67.10;;;;;;6333491;22;20034;-88
2022/03/09 12:10:17;;;;;;;10.25;6.80;;;10.70;66.90;;;;;;6358328;22;20026;-88
2022/03/09 12:13:15;;;;;;;10.70;7.40;;;10.80;65.70;;;;;;6332488;22;20025;-89
2022/03/09 12:16:16;;;;;;;10.80;7.00;;;10.80;65.90;;;;;;6324511;22;20088;-91
2022/03/09 12:19:12;;;;;;;11.43;6.72;;;10.80;64.90;;;;;;6351767;22;20017;-88
2022/03/09 12:21:47;;;;;;;11.38;6.85;;;10.90;64.00;;;;;;6324685;22;20018;-92
2022/03/09 12:24:23;;;;;;;11.27;7.07;;;10.90;63.90;;;;;;6353115;22;20022;-87
2022/03/09 12:29:40;;;;;;;11.10;7.25;;;11.00;64.10;;;;;;6355070;22;20027;-86
2022/03/09 12:32:14;;;;;;;10.82;7.30;;;11.00;63.10;;;;;;6318974;22;20029;-89
2022/03/09 12:34:47;;;;;;;12.48;6.85;;;11.10;61.90;;;;;;6318167;22;20569;-87
2022/03/09 12:37:23;;;;;;;9.40;6.40;;;11.10;61.00;;;;;;6319470;22;20011;-87
2022/03/09 12:39:51;;;;;;;11.30;7.10;;;11.10;61.20;;;;;;6291581;22;20026;-89
2022/03/09 12:42:18;;;;;;;10.52;7.05;;;11.10;61.00;;;;;;6318522;22;20019;-91
2022/03/09 12:44:49;;;;;;;;;;;11.20;59.90;;;;;;6320176;22;20023;-90
2022/03/09 12:47:19;;;;;;;10.82;6.70;;;11.20;60.40;;;;;;6319744;22;19914;-90
2022/03/09 12:49:48;;;;;;;10.43;6.68;;;11.20;59.40;;;;;;6294031;22;20026;-95
2022/03/09 12:52:26;;;;;;;11.57;6.70;;;11.20;58.20;;;;;;6287539;22;20490;-92
2022/03/09 12:54:56;;;;;;;9.18;6.65;;;11.20;58.20;;;;;;6288223;22;20019;-91
2022/03/09 12:57:30;;;;;;;10.55;6.88;;;11.30;58.30;;;;;;6286821;22;20098;-95
2022/03/09 13:00:10;;;;;;;12.13;6.80;;;11.30;58.50;;;;;;6312026;22;20045;-90
2022/03/09 13:02:45;;;;;;;10.32;6.80;;;11.30;58.30;;;;;;6312820;22;20019;-94
2022/03/09 13:05:13;;;;;;;8.93;6.10;;;11.30;57.40;;;;;;6287808;22;20080;-93
2022/03/09 13:07:52;;;;;;;11.60;6.88;;;11.40;57.30;;;;;;6293956;22;20025;-90
2022/03/09 13:10:17;;;;;;;9.95;6.80;;;11.40;57.60;;;;;;6297399;22;20066;-92
2022/03/09 13:12:49;;;;;;;9.17;6.30;;;11.40;57.20;;;;;;6292499;22;20015;-91
2022/03/09 13:15:48;;;;;;;12.48;7.10;;;11.40;56.40;;;;;;6292309;22;20019;-92
2022/03/09 13:18:26;;;;;;;12.50;7.13;;;11.40;56.20;;;;;;6288362;22;20451;-92
2022/03/09 13:21:04;;;;;;;9.50;6.63;;;11.40;56.10;;;;;;6291215;22;20511;-95
2022/03/09 13:40:14;;;;;;;12.57;6.70;;;11.50;56.60;;;;;;6394324;22;20018;-91
2022/03/09 13:43:01;;;;;;;;;;;11.50;56.90;;;;;;6377847;22;20017;-90
2022/03/09 13:45:31;;;;;;;11.90;6.78;;;11.50;57.30;;;;;;6350066;22;19914;-88
2022/03/09 13:48:04;;;;;;;10.90;7.03;;;11.60;56.70;;;;;;6355149;22;20022;-93
2022/03/09 13:50:42;;;;;;;11.02;6.85;;;11.60;57.10;;;;;;6351725;22;20025;-88
2022/03/09 13:53:07;;;;;;;10.65;6.40;;;11.60;57.00;;;;;;6325935;22;20439;-89
2022/03/09 13:55:45;;;;;;;12.93;6.83;;;11.60;56.70;;;;;;6351830;22;20018;-86
2022/03/09 13:58:20;;;;;;;9.85;6.28;;;11.60;56.40;;;;;;6377434;22;20045;-92
2022/03/09 14:26:47;;;;;;;11.30;7.25;;;11.60;55.40;;;;;;6403185;22;20024;-90